Time;durP1;ratioP1;P1;durP2;ratioP2;P2;SDS_P1;SDS_P2;PMS_P1;PMS_P2;Temp;Humidity;BMP_temperature;BMP_pressure;BME280_temperature;BME280_humidity;BME280_pressure;Samples;Min_cycle;Max_cycle;Signal;HPM_P1;HPM_P2
2022/07/25 00:01:52;;;;;;;10.50;6.40;;;;;;;;;;5033635;28;20413;-77
2022/07/25 00:04:18;;;;;;;7.23;6.27;;;;;;;;;;5033222;28;20433;-77
2022/07/25 00:06:44;;;;;;;6.30;5.70;;;;;;;;;;5033529;28;20401;-77
2022/07/25 00:09:10;;;;;;;9.50;6.47;;;;;;;;;;5033483;28;21008;-77
2022/07/25 00:11:36;;;;;;;10.83;6.33;;;;;;;;;;5032001;28;20457;-76
2022/07/25 00:14:02;;;;;;;10.63;7.20;;;;;;;;;;5033028;28;20460;-77
2022/07/25 00:16:28;;;;;;;7.30;6.60;;;;;;;;;;5033362;28;20413;-77
2022/07/25 00:18:54;;;;;;;7.07;6.37;;;;;;;;;;5033410;28;20902;-77
2022/07/25 00:21:20;;;;;;;7.40;6.70;;;;;;;;;;5033587;28;20417;-77
2022/07/25 00:23:46;;;;;;;8.27;6.17;;;;;;;;;;5032898;28;20456;-77
2022/07/25 00:26:13;;;;;;;7.07;6.37;;;;;;;;;;5033382;28;20500;-76
2022/07/25 00:28:39;;;;;;;6.50;5.90;;;;;;;;;;5033346;28;20764;-76
2022/07/25 00:31:05;;;;;;;6.93;6.20;;;;;;;;;;5033398;28;20502;-76
2022/07/25 00:33:31;;;;;;;6.80;6.20;;;;;;;;;;5032869;28;20429;-77
2022/07/25 00:35:57;;;;;;;6.67;6.07;;;;;;;;;;5031783;28;20464;-77
2022/07/25 00:38:23;;;;;;;6.87;6.17;;;;;;;;;;5033464;28;20420;-76
2022/07/25 00:40:49;;;;;;;7.40;6.67;;;;;;;;;;5033071;28;20980;-77
2022/07/25 00:43:15;;;;;;;7.63;6.70;;;;;;;;;;5032766;28;20440;-76
2022/07/25 00:45:41;;;;;;;6.70;6.00;;;;;;;;;;5032275;28;20444;-78
2022/07/25 00:48:07;;;;;;;8.53;6.13;;;;;;;;;;5033154;28;20417;-77
2022/07/25 00:50:34;;;;;;;7.50;6.80;;;;;;;;;;5036668;28;20428;-76
2022/07/25 00:53:00;;;;;;;6.97;6.37;;;;;;;;;;5036845;28;20453;-77
2022/07/25 00:55:26;;;;;;;8.03;7.23;;;;;;;;;;5037183;28;20411;-77
2022/07/25 00:57:52;;;;;;;6.70;6.00;;;;;;;;;;5036973;28;20416;-77
2022/07/25 01:00:18;;;;;;;7.60;6.80;;;;;;;;;;5035640;28;20418;-76
2022/07/25 01:02:44;;;;;;;7.47;6.77;;;;;;;;;;5035572;28;20463;-78
2022/07/25 01:05:10;;;;;;;6.80;6.10;;;;;;;;;;5037078;28;20417;-77
2022/07/25 01:07:38;;;;;;;7.37;6.70;;;;;;;;;;5036888;28;20412;-78
2022/07/25 01:10:04;;;;;;;9.60;6.50;;;;;;;;;;5036621;28;20416;-76
2022/07/25 01:12:30;;;;;;;7.43;6.77;;;;;;;;;;5036203;28;20557;-76
2022/07/25 01:14:56;;;;;;;8.50;6.33;;;;;;;;;;5036711;28;20518;-75
2022/07/25 01:17:23;;;;;;;7.40;6.70;;;;;;;;;;5036699;28;20406;-76
2022/07/25 01:19:50;;;;;;;9.30;7.07;;;;;;;;;;5036628;28;20472;-75
2022/07/25 01:22:16;;;;;;;8.17;6.97;;;;;;;;;;5036145;28;20969;-79
2022/07/25 01:24:42;;;;;;;8.63;6.20;;;;;;;;;;5036169;28;20825;-75
2022/07/25 01:27:08;;;;;;;8.30;6.80;;;;;;;;;;5036457;28;20898;-76
2022/07/25 01:29:34;;;;;;;9.20;7.30;;;;;;;;;;5036649;28;20413;-76
2022/07/25 01:32:00;;;;;;;7.53;6.67;;;;;;;;;;5036535;28;20878;-75
2022/07/25 01:34:26;;;;;;;7.43;6.70;;;;;;;;;;5035943;28;20437;-76
2022/07/25 01:36:52;;;;;;;7.10;6.50;;;;;;;;;;5036417;28;20419;-76
2022/07/25 01:39:18;;;;;;;8.30;6.20;;;;;;;;;;5036156;28;20426;-76
2022/07/25 01:41:44;;;;;;;8.43;6.07;;;;;;;;;;5036251;28;20417;-77
2022/07/25 01:44:10;;;;;;;11.63;6.20;;;;;;;;;;5035942;28;20466;-77
2022/07/25 01:46:36;;;;;;;7.70;6.57;;;;;;;;;;5036037;28;20413;-77
2022/07/25 01:49:02;;;;;;;8.03;6.40;;;;;;;;;;5036305;28;20418;-77
2022/07/25 01:51:28;;;;;;;10.30;7.17;;;;;;;;;;5035941;28;20464;-77
2022/07/25 01:53:54;;;;;;;7.50;6.40;;;;;;;;;;5035479;28;20528;-77
2022/07/25 01:56:20;;;;;;;8.80;6.83;;;;;;;;;;5035981;28;20405;-78
2022/07/25 01:58:46;;;;;;;7.13;6.43;;;;;;;;;;5035949;28;20455;-77
2022/07/25 02:01:12;;;;;;;7.17;6.57;;;;;;;;;;5035783;28;20786;-77
2022/07/25 02:03:38;;;;;;;6.73;6.13;;;;;;;;;;5035460;28;20568;-77
2022/07/25 02:06:06;;;;;;;6.93;6.27;;;;;;;;;;5035756;28;20418;-76
2022/07/25 02:08:32;;;;;;;6.70;6.00;;;;;;;;;;5035652;28;20475;-78
2022/07/25 02:10:58;;;;;;;8.83;7.00;;;;;;;;;;5035508;28;20457;-77
2022/07/25 02:13:24;;;;;;;6.30;5.70;;;;;;;;;;5035315;28;20437;-77
2022/07/25 02:15:50;;;;;;;6.43;5.83;;;;;;;;;;5035534;28;20409;-77
2022/07/25 02:18:16;;;;;;;6.60;6.00;;;;;;;;;;5035647;28;20817;-76
2022/07/25 02:20:42;;;;;;;9.00;6.63;;;;;;;;;;5037478;28;20497;-77
2022/07/25 02:23:08;;;;;;;6.90;6.30;;;;;;;;;;5035163;28;20792;-77
2022/07/25 02:25:35;;;;;;;7.70;6.50;;;;;;;;;;5035631;28;20421;-76
2022/07/25 02:28:01;;;;;;;7.07;6.37;;;;;;;;;;5035533;28;20449;-76
2022/07/25 02:30:27;;;;;;;6.60;5.90;;;;;;;;;;5035454;28;20410;-77
2022/07/25 02:32:53;;;;;;;7.20;6.50;;;;;;;;;;5034924;28;20477;-77
2022/07/25 02:35:19;;;;;;;7.60;6.33;;;;;;;;;;5035248;28;20440;-76
2022/07/25 02:37:46;;;;;;;6.83;6.10;;;;;;;;;;5035113;28;20455;-77
2022/07/25 02:40:12;;;;;;;9.50;6.53;;;;;;;;;;5035107;28;20408;-76
2022/07/25 02:42:38;;;;;;;7.10;6.20;;;;;;;;;;5035003;28;20771;-76
2022/07/25 02:45:04;;;;;;;6.60;6.00;;;;;;;;;;5035244;28;20418;-76
2022/07/25 02:47:30;;;;;;;7.50;6.67;;;;;;;;;;5035169;28;20417;-77
2022/07/25 02:49:56;;;;;;;7.50;6.20;;;;;;;;;;5035100;28;20406;-76
2022/07/25 02:52:22;;;;;;;7.27;6.67;;;;;;;;;;5034393;28;20469;-76
2022/07/25 02:54:49;;;;;;;6.80;6.20;;;;;;;;;;5034624;28;20456;-76
2022/07/25 02:57:15;;;;;;;7.40;6.33;;;;;;;;;;5034844;28;20459;-76
2022/07/25 02:59:41;;;;;;;6.50;5.90;;;;;;;;;;5034714;28;20398;-76
2022/07/25 03:02:07;;;;;;;6.70;6.07;;;;;;;;;;5034702;28;20412;-76
2022/07/25 03:04:33;;;;;;;7.30;6.30;;;;;;;;;;5034336;28;20434;-76
2022/07/25 03:06:59;;;;;;;7.13;6.43;;;;;;;;;;5034791;28;20736;-77
2022/07/25 03:09:25;;;;;;;9.43;6.80;;;;;;;;;;5034570;28;20420;-76
2022/07/25 03:11:51;;;;;;;9.03;7.17;;;;;;;;;;5033583;28;20464;-77
2022/07/25 03:14:17;;;;;;;6.67;6.03;;;;;;;;;;5034136;28;20457;-78
2022/07/25 03:16:43;;;;;;;7.00;6.20;;;;;;;;;;5034360;28;20417;-76
2022/07/25 03:19:11;;;;;;;6.60;6.00;;;;;;;;;;5034228;28;20409;-77
2022/07/25 03:21:37;;;;;;;6.87;5.77;;;;;;;;;;5034584;28;20495;-76
2022/07/25 03:24:04;;;;;;;6.77;6.07;;;;;;;;;;5034025;28;20465;-76
2022/07/25 03:26:30;;;;;;;7.03;5.87;;;;;;;;;;5034356;28;20417;-76
2022/07/25 03:28:56;;;;;;;10.37;6.00;;;;;;;;;;5034161;28;20905;-77
2022/07/25 03:31:22;;;;;;;9.33;6.60;;;;;;;;;;5034121;28;20468;-76
2022/07/25 03:33:48;;;;;;;7.53;6.37;;;;;;;;;;5033862;28;20445;-77
2022/07/25 03:36:14;;;;;;;6.13;5.63;;;;;;;;;;5034313;28;20434;-76
2022/07/25 03:38:40;;;;;;;7.07;6.37;;;;;;;;;;5034116;28;20836;-76
2022/07/25 03:41:06;;;;;;;7.53;6.80;;;;;;;;;;5034078;28;20414;-76
2022/07/25 03:43:32;;;;;;;6.73;6.03;;;;;;;;;;5033544;28;20434;-76
2022/07/25 03:45:58;;;;;;;6.77;6.07;;;;;;;;;;5033971;28;20421;-77
2022/07/25 03:48:24;;;;;;;6.80;5.70;;;;;;;;;;5033906;28;20415;-76
2022/07/25 03:50:49;;;;;;;9.30;5.60;;;;;;;;;;5033787;28;20446;-76
2022/07/25 03:53:16;;;;;;;6.13;5.53;;;;;;;;;;5033178;28;20824;-76
2022/07/25 03:55:41;;;;;;;6.90;6.20;;;;;;;;;;5033706;28;20413;-77
2022/07/25 03:58:07;;;;;;;6.73;6.00;;;;;;;;;;5033785;28;20497;-76
2022/07/25 04:00:33;;;;;;;6.37;5.77;;;;;;;;;;5032449;28;20429;-77
2022/07/25 04:02:59;;;;;;;7.03;6.33;;;;;;;;;;5033272;28;20445;-77
2022/07/25 04:05:25;;;;;;;7.03;6.30;;;;;;;;;;5033496;28;20437;-76
2022/07/25 04:07:51;;;;;;;6.30;5.70;;;;;;;;;;5033603;28;20414;-76
2022/07/25 04:10:17;;;;;;;7.10;6.43;;;;;;;;;;5033589;28;20425;-77
2022/07/25 04:12:44;;;;;;;7.23;5.90;;;;;;;;;;5031760;28;20556;-77
2022/07/25 04:15:11;;;;;;;5.97;5.37;;;;;;;;;;5015997;28;20508;-77
2022/07/25 04:17:37;;;;;;;7.17;6.13;;;;;;;;;;5033272;28;20821;-77
2022/07/25 04:20:03;;;;;;;6.53;6.03;;;;;;;;;;5033555;28;20418;-76
2022/07/25 04:22:29;;;;;;;6.07;5.47;;;;;;;;;;5032854;28;20424;-77
2022/07/25 04:24:55;;;;;;;9.27;5.90;;;;;;;;;;5033764;28;20496;-76
2022/07/25 04:27:21;;;;;;;6.73;5.93;;;;;;;;;;5033522;28;20413;-77
2022/07/25 04:29:47;;;;;;;6.90;6.20;;;;;;;;;;5033373;28;20471;-76
2022/07/25 04:32:15;;;;;;;6.00;5.50;;;;;;;;;;5034233;28;20538;-76
2022/07/25 04:34:43;;;;;;;8.97;6.27;;;;;;;;;;5033158;28;20468;-76
2022/07/25 04:37:09;;;;;;;8.87;5.50;;;;;;;;;;5033424;28;20848;-76
2022/07/25 04:39:35;;;;;;;5.87;5.40;;;;;;;;;;5033065;28;20441;-77
2022/07/25 04:42:01;;;;;;;5.43;4.93;;;;;;;;;;5033116;28;20909;-76
2022/07/25 04:44:27;;;;;;;6.10;5.60;;;;;;;;;;5032745;28;20433;-76
2022/07/25 04:46:53;;;;;;;6.53;5.83;;;;;;;;;;5033256;28;20780;-76
2022/07/25 04:49:19;;;;;;;7.13;6.10;;;;;;;;;;5033283;28;20397;-76
2022/07/25 04:51:45;;;;;;;6.03;5.27;;;;;;;;;;5032774;28;20480;-76
2022/07/25 04:54:11;;;;;;;6.43;5.83;;;;;;;;;;5032772;28;20546;-77
2022/07/25 04:56:37;;;;;;;6.90;6.20;;;;;;;;;;5033266;28;20422;-76
2022/07/25 04:59:03;;;;;;;8.30;5.57;;;;;;;;;;5032001;28;20409;-76
2022/07/25 05:01:29;;;;;;;6.93;6.17;;;;;;;;;;5032942;28;20416;-76
2022/07/25 05:03:55;;;;;;;7.30;5.20;;;;;;;;;;5032334;28;20442;-77
2022/07/25 05:06:21;;;;;;;5.63;5.23;;;;;;;;;;5033059;28;20421;-77
2022/07/25 05:08:47;;;;;;;6.87;6.27;;;;;;;;;;5031878;28;20999;-77
2022/07/25 05:11:13;;;;;;;5.83;5.20;;;;;;;;;;5032772;28;20495;-77
2022/07/25 05:13:39;;;;;;;6.40;5.80;;;;;;;;;;5031161;28;20445;-78
2022/07/25 05:16:05;;;;;;;6.00;5.40;;;;;;;;;;5032858;28;20421;-77
2022/07/25 05:18:33;;;;;;;5.23;4.83;;;;;;;;;;5032809;28;20625;-78
2022/07/25 05:20:59;;;;;;;8.10;6.53;;;;;;;;;;5032834;28;20543;-79
2022/07/25 05:23:25;;;;;;;6.00;4.40;;;;;;;;;;5032313;28;20969;-78
2022/07/25 05:25:51;;;;;;;6.67;6.07;;;;;;;;;;5032736;28;20783;-78
2022/07/25 05:28:17;;;;;;;6.90;5.30;;;;;;;;;;5031417;28;20414;-79
2022/07/25 05:30:43;;;;;;;5.83;5.33;;;;;;;;;;5032598;28;20409;-80
2022/07/25 05:33:09;;;;;;;6.87;4.90;;;;;;;;;;5031020;28;20941;-78
2022/07/25 05:35:35;;;;;;;6.37;5.63;;;;;;;;;;5034251;28;20442;-77
2022/07/25 05:38:01;;;;;;;6.30;5.67;;;;;;;;;;5036254;28;20770;-78
2022/07/25 05:40:27;;;;;;;5.83;5.33;;;;;;;;;;5036154;28;20508;-79
2022/07/25 05:42:53;;;;;;;9.60;6.00;;;;;;;;;;5036060;28;20997;-78
2022/07/25 05:45:19;;;;;;;6.60;6.00;;;;;;;;;;5035035;28;20432;-79
2022/07/25 05:47:45;;;;;;;6.47;5.73;;;;;;;;;;5036238;28;20414;-78
2022/07/25 05:50:11;;;;;;;5.93;5.37;;;;;;;;;;5035990;28;20456;-79
2022/07/25 05:52:37;;;;;;;5.50;5.00;;;;;;;;;;5035468;28;20473;-78
2022/07/25 05:55:04;;;;;;;6.37;5.70;;;;;;;;;;5036076;28;20406;-78
2022/07/25 05:57:30;;;;;;;5.93;5.40;;;;;;;;;;5034805;28;20971;-78
2022/07/25 05:59:56;;;;;;;6.17;5.47;;;;;;;;;;5035923;28;20445;-78
2022/07/25 06:02:22;;;;;;;6.07;5.47;;;;;;;;;;5041867;28;20871;-80
2022/07/25 06:04:49;;;;;;;10.13;5.53;;;;;;;;;;5055737;28;20532;-77
2022/07/25 06:07:15;;;;;;;6.07;5.20;;;;;;;;;;5055924;28;20505;-78
2022/07/25 06:09:41;;;;;;;7.73;5.37;;;;;;;;;;5055734;28;20850;-77
2022/07/25 06:12:07;;;;;;;6.03;5.43;;;;;;;;;;5055410;28;20559;-78
2022/07/25 06:14:33;;;;;;;7.53;5.13;;;;;;;;;;5055044;28;20462;-78
2022/07/25 06:16:59;;;;;;;4.97;4.47;;;;;;;;;;5055499;28;20424;-76
2022/07/25 06:19:25;;;;;;;8.00;5.23;;;;;;;;;;5054204;28;20775;-78
2022/07/25 06:21:51;;;;;;;5.57;5.07;;;;;;;;;;5055426;28;20778;-77
2022/07/25 06:24:17;;;;;;;5.37;4.93;;;;;;;;;;5054843;28;20440;-78
2022/07/25 06:26:44;;;;;;;7.40;5.67;;;;;;;;;;5054145;28;20417;-77
2022/07/25 06:29:10;;;;;;;5.57;5.07;;;;;;;;;;5055391;28;20413;-77
2022/07/25 06:31:36;;;;;;;5.47;5.07;;;;;;;;;;5055281;28;20555;-77
2022/07/25 06:34:02;;;;;;;6.47;5.63;;;;;;;;;;5053931;28;20520;-77
2022/07/25 06:36:28;;;;;;;6.80;5.13;;;;;;;;;;5054917;28;20408;-78
2022/07/25 06:38:54;;;;;;;8.97;5.90;;;;;;;;;;5055225;28;20413;-78
2022/07/25 06:41:20;;;;;;;6.20;5.40;;;;;;;;;;5055147;28;20448;-78
2022/07/25 06:43:46;;;;;;;6.00;5.10;;;;;;;;;;5053452;28;20810;-78
2022/07/25 06:46:12;;;;;;;6.30;5.63;;;;;;;;;;5054331;28;20930;-78
2022/07/25 06:48:38;;;;;;;6.37;5.70;;;;;;;;;;5037019;28;20425;-77
2022/07/25 06:51:05;;;;;;;7.93;5.40;;;;;;;;;;5034939;28;21058;-78
2022/07/25 06:53:31;;;;;;;6.43;5.80;;;;;;;;;;5033302;28;20458;-78
2022/07/25 06:55:57;;;;;;;6.00;5.40;;;;;;;;;;5034910;28;20405;-77
2022/07/25 06:58:23;;;;;;;5.47;4.93;;;;;;;;;;5034967;28;20457;-77
2022/07/25 07:00:49;;;;;;;7.93;5.63;;;;;;;;;;5034600;28;20448;-77
2022/07/25 07:03:15;;;;;;;5.77;5.20;;;;;;;;;;5034486;28;20430;-77
2022/07/25 07:05:41;;;;;;;6.10;5.43;;;;;;;;;;5034821;28;20413;-77
2022/07/25 07:08:07;;;;;;;6.97;5.50;;;;;;;;;;5034722;28;20766;-77
2022/07/25 07:10:33;;;;;;;6.67;5.70;;;;;;;;;;5034543;28;20417;-81
2022/07/25 07:13:06;;;;;;;7.53;5.90;;;;;;;;;;5034005;28;20868;-77
2022/07/25 07:15:33;;;;;;;6.73;6.00;;;;;;;;;;5033206;28;20414;-79
2022/07/25 07:17:59;;;;;;;6.50;5.53;;;;;;;;;;5034556;28;20952;-77
2022/07/25 07:20:25;;;;;;;7.93;5.87;;;;;;;;;;5033292;28;20405;-78
2022/07/25 07:22:50;;;;;;;7.80;5.87;;;;;;;;;;5033753;28;20433;-78
2022/07/25 07:25:17;;;;;;;7.47;5.20;;;;;;;;;;5034473;28;20421;-78
2022/07/25 07:27:44;;;;;;;10.73;5.70;;;;;;;;;;5034432;28;20402;-77
2022/07/25 07:30:11;;;;;;;6.97;5.33;;;;;;;;;;5034322;28;20417;-80
2022/07/25 07:32:37;;;;;;;8.77;5.77;;;;;;;;;;5034064;28;20820;-77
2022/07/25 07:35:03;;;;;;;5.97;5.37;;;;;;;;;;5033875;28;20880;-77
2022/07/25 07:37:29;;;;;;;7.57;5.67;;;;;;;;;;5034072;28;20416;-78
2022/07/25 07:39:55;;;;;;;6.20;5.60;;;;;;;;;;5032843;28;20431;-77
2022/07/25 07:42:21;;;;;;;4.90;4.50;;;;;;;;;;5032646;28;20798;-77
2022/07/25 07:44:47;;;;;;;6.10;5.50;;;;;;;;;;5034124;28;20487;-76
2022/07/25 07:47:13;;;;;;;5.67;5.17;;;;;;;;;;5034076;28;20417;-78
2022/07/25 07:49:39;;;;;;;6.60;6.00;;;;;;;;;;5034130;28;20425;-78
2022/07/25 07:52:06;;;;;;;6.03;5.40;;;;;;;;;;5033749;28;20467;-77
2022/07/25 07:57:17;;;;;;;7.93;5.70;;;;;;;;;;5033888;28;20507;-79
2022/07/25 07:59:43;;;;;;;6.53;5.50;;;;;;;;;;5033584;28;20401;-76
2022/07/25 08:02:09;;;;;;;6.23;5.63;;;;;;;;;;5032633;28;20842;-77
2022/07/25 08:04:35;;;;;;;5.73;5.23;;;;;;;;;;5015668;28;20491;-78
2022/07/25 08:07:01;;;;;;;5.33;4.93;;;;;;;;;;5033853;28;20405;-76
2022/07/25 08:09:27;;;;;;;7.70;6.90;;;;;;;;;;5034026;28;20886;-77
2022/07/25 08:11:53;;;;;;;7.23;5.20;;;;;;;;;;5033731;28;20454;-76
2022/07/25 08:14:19;;;;;;;8.50;5.40;;;;;;;;;;5032030;28;20449;-75
2022/07/25 08:16:45;;;;;;;7.97;5.77;;;;;;;;;;5033393;28;20920;-75
2022/07/25 08:19:11;;;;;;;8.10;5.30;;;;;;;;;;5033357;28;20406;-77
2022/07/25 08:21:37;;;;;;;7.20;5.90;;;;;;;;;;5033289;28;20531;-76
2022/07/25 08:24:03;;;;;;;6.17;5.57;;;;;;;;;;5033043;28;20465;-75
2022/07/25 08:26:32;;;;;;;7.27;5.80;;;;;;;;;;5033249;28;20512;-76
2022/07/25 08:28:58;;;;;;;8.47;5.60;;;;;;;;;;5033270;28;20444;-77
2022/07/25 08:31:24;;;;;;;9.00;5.67;;;;;;;;;;5033147;28;20461;-76
2022/07/25 08:33:50;;;;;;;11.93;6.20;;;;;;;;;;5032981;28;20930;-75
2022/07/25 08:36:16;;;;;;;6.83;6.13;;;;;;;;;;5033362;28;20406;-76
2022/07/25 08:38:42;;;;;;;5.97;5.40;;;;;;;;;;5033389;28;20410;-74
2022/07/25 08:41:08;;;;;;;9.60;5.70;;;;;;;;;;5027970;28;20885;-76
2022/07/25 08:43:36;;;;;;;5.53;5.03;;;;;;;;;;5029364;28;20922;-75
2022/07/25 08:46:04;;;;;;;5.73;5.23;;;;;;;;;;5026301;28;20425;-75
2022/07/25 08:48:30;;;;;;;13.23;5.97;;;;;;;;;;5033141;28;20843;-75
2022/07/25 08:50:57;;;;;;;6.30;5.80;;;;;;;;;;5033142;28;20405;-75
2022/07/25 08:53:23;;;;;;;5.63;5.10;;;;;;;;;;5032587;28;20442;-77
2022/07/25 08:55:49;;;;;;;5.80;5.20;;;;;;;;;;5031324;28;20424;-76
2022/07/25 08:58:16;;;;;;;6.70;6.07;;;;;;;;;;5032900;28;20417;-76
2022/07/25 09:00:43;;;;;;;7.60;6.30;;;;;;;;;;5033208;28;20821;-74
2022/07/25 09:03:10;;;;;;;7.50;5.57;;;;;;;;;;5032673;28;20774;-74
2022/07/25 09:05:36;;;;;;;10.40;6.40;;;;;;;;;;5032289;28;20905;-76
2022/07/25 09:08:07;;;;;;;5.60;4.97;;;;;;;;;;5032851;28;20467;-76
2022/07/25 09:10:33;;;;;;;6.20;5.13;;;;;;;;;;5027490;28;20437;-76
2022/07/25 09:13:00;;;;;;;9.30;5.33;;;;;;;;;;5034623;28;21030;-76
2022/07/25 09:15:31;;;;;;;5.90;5.40;;;;;;;;;;5036842;28;20927;-76
2022/07/25 09:17:59;;;;;;;5.93;5.33;;;;;;;;;;5036622;28;20414;-76
2022/07/25 09:20:35;;;;;;;5.90;5.40;;;;;;;;;;5036756;28;20555;-76
2022/07/25 09:23:01;;;;;;;6.83;5.57;;;;;;;;;;5035697;28;20436;-76
2022/07/25 09:25:28;;;;;;;6.23;5.10;;;;;;;;;;5036612;28;20409;-76
2022/07/25 09:27:54;;;;;;;6.50;5.90;;;;;;;;;;5036355;28;20409;-76
2022/07/25 09:30:20;;;;;;;9.33;5.87;;;;;;;;;;5036459;28;20409;-76
2022/07/25 09:32:46;;;;;;;6.00;5.40;;;;;;;;;;5036005;28;20962;-76
2022/07/25 09:35:13;;;;;;;6.90;5.17;;;;;;;;;;5036156;28;20425;-76
2022/07/25 09:37:39;;;;;;;7.03;5.60;;;;;;;;;;5036270;28;20751;-75
2022/07/25 09:40:12;;;;;;;6.93;6.10;;;;;;;;;;5036075;28;20435;-76
2022/07/25 09:42:38;;;;;;;6.60;5.60;;;;;;;;;;5051112;28;20520;-77
2022/07/25 09:45:10;;;;;;;5.60;5.03;;;;;;;;;;5051687;28;20414;-77
2022/07/25 09:47:37;;;;;;;8.97;5.30;;;;;;;;;;5035920;28;20425;-77
2022/07/25 09:50:04;;;;;;;6.90;6.20;;;;;;;;;;5036349;28;20405;-76
2022/07/25 09:52:30;;;;;;;6.50;5.93;;;;;;;;;;5036047;28;20472;-77
2022/07/25 09:54:57;;;;;;;8.20;6.43;;;;;;;;;;5036103;28;20465;-75
2022/07/25 09:57:24;;;;;;;6.50;5.90;;;;;;;;;;5036330;28;20414;-76
2022/07/25 09:59:50;;;;;;;12.33;6.00;;;;;;;;;;5036074;28;20816;-76
2022/07/25 10:02:22;;;;;;;6.80;5.60;;;;;;;;;;5034925;28;20421;-76
2022/07/25 10:05:09;;;;;;;8.43;5.73;;;;;;;;;;5034524;28;20957;-77
2022/07/25 10:07:39;;;;;;;6.20;5.63;;;;;;;;;;5035184;28;20425;-76
2022/07/25 10:10:05;;;;;;;7.40;5.47;;;;;;;;;;5035691;28;20421;-76
2022/07/25 10:12:31;;;;;;;6.40;5.20;;;;;;;;;;5035385;28;20461;-76
2022/07/25 10:15:08;;;;;;;5.37;4.67;;;;;;;;;;5036023;28;20886;-76
2022/07/25 10:17:34;;;;;;;11.73;5.27;;;;;;;;;;5035623;28;20432;-76
2022/07/25 10:20:00;;;;;;;6.40;5.20;;;;;;;;;;5041332;28;20453;-77
2022/07/25 10:22:56;;;;;;;6.93;5.00;;;;;;;;;;5046822;28;20932;-76
2022/07/25 10:25:22;;;;;;;5.00;4.50;;;;;;;;;;5007126;28;20950;-75
2022/07/25 10:27:49;;;;;;;7.70;4.90;;;;;;;;;;5034684;28;20445;-76
2022/07/25 10:30:19;;;;;;;8.40;4.73;;;;;;;;;;5035444;28;20424;-75
2022/07/25 10:32:49;;;;;;;8.67;4.30;;;;;;;;;;5033496;28;20461;-76
2022/07/25 10:35:18;;;;;;;12.40;4.43;;;;;;;;;;5035156;28;20421;-77
2022/07/25 10:37:45;;;;;;;7.10;4.90;;;;;;;;;;5033601;28;20809;-75
2022/07/25 10:40:11;;;;;;;8.80;4.37;;;;;;;;;;5024301;28;20508;-75
2022/07/25 10:42:43;;;;;;;5.10;4.60;;;;;;;;;;5034627;28;20414;-74
2022/07/25 10:45:16;;;;;;;5.93;4.80;;;;;;;;;;5035079;28;20421;-74
2022/07/25 10:47:50;;;;;;;9.10;4.70;;;;;;;;;;5035149;28;20487;-74
2022/07/25 10:50:18;;;;;;;6.20;4.10;;;;;;;;;;5033037;28;20556;-75
2022/07/25 10:52:44;;;;;;;6.47;4.33;;;;;;;;;;5034478;28;20867;-75
2022/07/25 10:55:21;;;;;;;4.60;4.20;;;;;;;;;;5034831;28;20430;-74
2022/07/25 10:57:58;;;;;;;4.30;3.73;;;;;;;;;;5026987;28;20913;-74
2022/07/25 11:00:24;;;;;;;4.33;3.93;;;;;;;;;;5035019;28;20413;-74
2022/07/25 11:09:19;;;;;;;;;;;;;;;;;;;;;
2022/07/25 11:11:58;;;;;;;8.90;3.60;;;;;;;;;;4997125;28;20462;-76
2022/07/25 11:17:29;;;;;;;5.93;3.87;;;;;;;;;;5012056;28;20409;-77
2022/07/25 11:19:56;;;;;;;4.80;4.17;;;;;;;;;;5012352;28;20407;-77
2022/07/25 11:22:22;;;;;;;7.10;3.50;;;;;;;;;;5012199;28;20465;-76
2022/07/25 11:24:48;;;;;;;10.80;4.10;;;;;;;;;;5018949;28;20434;-78
2022/07/25 11:27:22;;;;;;;6.17;3.83;;;;;;;;;;5072470;28;20495;-77
2022/07/25 11:29:48;;;;;;;13.53;3.83;;;;;;;;;;5054116;28;20424;-77
2022/07/25 11:32:14;;;;;;;4.93;3.53;;;;;;;;;;5063021;28;20891;-77
2022/07/25 11:34:48;;;;;;;3.60;3.20;;;;;;;;;;5065349;28;20507;-76
2022/07/25 11:37:14;;;;;;;4.03;3.60;;;;;;;;;;5061791;28;20475;-77
2022/07/25 11:39:42;;;;;;;3.20;2.90;;;;;;;;;;5054060;28;20397;-77
2022/07/25 11:42:09;;;;;;;5.73;3.60;;;;;;;;;;5062179;28;20861;-77
2022/07/25 11:44:46;;;;;;;4.43;3.00;;;;;;;;;;5056442;28;20435;-77
2022/07/25 11:47:28;;;;;;;3.70;3.40;;;;;;;;;;5058639;28;20411;-78
2022/07/25 11:49:55;;;;;;;6.97;3.37;;;;;;;;;;5073725;28;20443;-77
2022/07/25 11:52:30;;;;;;;5.30;3.00;;;;;;;;;;5073344;28;20466;-78
2022/07/25 11:54:57;;;;;;;3.47;3.07;;;;;;;;;;5072371;28;20472;-77
2022/07/25 11:57:30;;;;;;;4.10;3.20;;;;;;;;;;5068212;28;20423;-78
2022/07/25 11:59:59;;;;;;;11.23;2.90;;;;;;;;;;5073768;28;20412;-76
2022/07/25 12:02:32;;;;;;;5.27;3.10;;;;;;;;;;5061179;28;20489;-76
2022/07/25 12:05:02;;;;;;;6.97;4.03;;;;;;;;;;5053325;28;20432;-76
2022/07/25 12:07:38;;;;;;;5.33;3.77;;;;;;;;;;5053552;28;20907;-77
2022/07/25 12:10:05;;;;;;;5.47;3.43;;;;;;;;;;5053547;28;20905;-77
2022/07/25 12:12:45;;;;;;;4.23;3.30;;;;;;;;;;5052943;28;20482;-76
2022/07/25 12:15:12;;;;;;;6.83;3.30;;;;;;;;;;5053217;28;20450;-77
2022/07/25 12:17:39;;;;;;;3.67;2.57;;;;;;;;;;5054019;28;20404;-76
2022/07/25 12:20:10;;;;;;;8.57;3.20;;;;;;;;;;5053366;28;20409;-77
2022/07/25 12:22:36;;;;;;;4.70;3.27;;;;;;;;;;5053113;28;20429;-76
2022/07/25 12:25:02;;;;;;;4.13;2.53;;;;;;;;;;5053334;28;20787;-76
2022/07/25 12:27:28;;;;;;;3.23;2.33;;;;;;;;;;5054054;28;20518;-76
2022/07/25 12:29:54;;;;;;;5.63;3.17;;;;;;;;;;5052522;28;20412;-76
2022/07/25 12:32:20;;;;;;;3.87;3.03;;;;;;;;;;5053612;28;20475;-76
2022/07/25 12:34:46;;;;;;;4.93;2.97;;;;;;;;;;5053350;28;20894;-76
2022/07/25 12:37:12;;;;;;;5.53;2.93;;;;;;;;;;5053291;28;20412;-77
2022/07/25 12:39:38;;;;;;;5.83;3.13;;;;;;;;;;5053211;28;20470;-75
2022/07/25 12:42:04;;;;;;;5.10;3.20;;;;;;;;;;5053059;28;20413;-76
2022/07/25 12:44:30;;;;;;;10.10;3.43;;;;;;;;;;5053250;28;20448;-77
2022/07/25 12:46:56;;;;;;;5.13;3.00;;;;;;;;;;5057408;28;20412;-76
2022/07/25 12:49:22;;;;;;;6.73;3.60;;;;;;;;;;5057163;28;20781;-76
2022/07/25 12:51:48;;;;;;;4.00;2.23;;;;;;;;;;5056892;28;21207;-76
2022/07/25 12:54:16;;;;;;;9.47;3.30;;;;;;;;;;5056655;28;21006;-76
2022/07/25 12:56:42;;;;;;;3.27;2.73;;;;;;;;;;5057130;28;20881;-77
2022/07/25 12:59:07;;;;;;;3.53;2.70;;;;;;;;;;5057082;28;20424;-76
2022/07/25 13:01:33;;;;;;;5.57;2.80;;;;;;;;;;5056894;28;20483;-76
2022/07/25 13:03:59;;;;;;;3.97;2.90;;;;;;;;;;5056293;28;20432;-76
2022/07/25 13:06:25;;;;;;;3.37;2.43;;;;;;;;;;5055751;28;20427;-77
2022/07/25 13:08:51;;;;;;;5.43;2.50;;;;;;;;;;5057061;28;20508;-76
2022/07/25 13:11:17;;;;;;;5.17;2.10;;;;;;;;;;5055364;28;20459;-77
2022/07/25 13:13:43;;;;;;;5.63;2.40;;;;;;;;;;5056379;28;20980;-77
2022/07/25 13:16:09;;;;;;;4.80;2.60;;;;;;;;;;5056918;28;20495;-76
2022/07/25 13:18:35;;;;;;;13.10;2.37;;;;;;;;;;5056746;28;20775;-77
2022/07/25 13:21:02;;;;;;;3.20;2.20;;;;;;;;;;5056691;28;20402;-77
2022/07/25 13:23:28;;;;;;;3.60;2.30;;;;;;;;;;5055064;28;20435;-78
2022/07/25 13:25:54;;;;;;;3.27;2.23;;;;;;;;;;5056466;28;20416;-76
2022/07/25 13:28:20;;;;;;;2.37;2.17;;;;;;;;;;5056609;28;20768;-77
2022/07/25 13:30:46;;;;;;;5.23;2.20;;;;;;;;;;5056461;28;20409;-77
2022/07/25 13:33:14;;;;;;;7.93;2.33;;;;;;;;;;5056125;28;20476;-77
2022/07/25 13:35:40;;;;;;;2.10;1.83;;;;;;;;;;5056353;28;20412;-77
2022/07/25 13:38:09;;;;;;;2.43;1.63;;;;;;;;;;5056299;28;20408;-76
2022/07/25 13:40:39;;;;;;;7.60;1.93;;;;;;;;;;5056472;28;20408;-77
2022/07/25 13:43:05;;;;;;;3.70;1.80;;;;;;;;;;5056138;28;20807;-76
2022/07/25 13:45:31;;;;;;;3.90;2.00;;;;;;;;;;5057130;28;20421;-76
2022/07/25 13:47:57;;;;;;;2.27;2.03;;;;;;;;;;5056229;28;20428;-77
2022/07/25 13:50:23;;;;;;;5.20;2.10;;;;;;;;;;5056512;28;20424;-76
2022/07/25 13:52:49;;;;;;;5.57;2.17;;;;;;;;;;5055751;28;20472;-75
2022/07/25 13:55:15;;;;;;;4.80;2.10;;;;;;;;;;5055840;28;20409;-76
2022/07/25 13:57:41;;;;;;;10.43;2.03;;;;;;;;;;5056040;28;20779;-76
2022/07/25 14:00:07;;;;;;;7.40;2.20;;;;;;;;;;5054852;28;20835;-75
2022/07/25 14:02:33;;;;;;;5.17;2.13;;;;;;;;;;5055915;28;20444;-76
2022/07/25 14:04:59;;;;;;;4.40;2.60;;;;;;;;;;5055780;28;20439;-75
2022/07/25 14:07:25;;;;;;;2.17;1.97;;;;;;;;;;5055988;28;20413;-75
2022/07/25 14:09:52;;;;;;;6.83;1.70;;;;;;;;;;5055936;28;20420;-75
2022/07/25 14:12:17;;;;;;;3.87;1.90;;;;;;;;;;5055792;28;20503;-76
2022/07/25 14:14:43;;;;;;;5.00;2.47;;;;;;;;;;5055888;28;20786;-76
2022/07/25 14:17:10;;;;;;;4.70;2.00;;;;;;;;;;5055888;28;20416;-75
2022/07/25 14:19:36;;;;;;;2.13;1.63;;;;;;;;;;5056009;28;20413;-75
2022/07/25 14:22:02;;;;;;;6.17;2.27;;;;;;;;;;5054577;28;20413;-76
2022/07/25 14:24:28;;;;;;;6.53;2.10;;;;;;;;;;5055312;28;20823;-75
2022/07/25 14:26:54;;;;;;;3.00;1.80;;;;;;;;;;5055602;28;20413;-75
2022/07/25 14:29:21;;;;;;;4.47;2.43;;;;;;;;;;5055644;28;20411;-75
2022/07/25 14:31:47;;;;;;;4.80;2.17;;;;;;;;;;5055456;28;20488;-76
2022/07/25 14:34:16;;;;;;;4.63;1.80;;;;;;;;;;5054963;28;20432;-75
2022/07/25 14:36:43;;;;;;;5.13;2.33;;;;;;;;;;5055419;28;20797;-75
2022/07/25 14:39:09;;;;;;;8.03;2.00;;;;;;;;;;5055398;28;20428;-75
2022/07/25 14:41:35;;;;;;;3.97;2.00;;;;;;;;;;5055093;28;20416;-75
2022/07/25 14:44:01;;;;;;;4.97;2.23;;;;;;;;;;5054885;28;20446;-75
2022/07/25 14:46:27;;;;;;;3.63;1.90;;;;;;;;;;5055169;28;20417;-75
2022/07/25 14:48:53;;;;;;;2.97;2.43;;;;;;;;;;5055295;28;20427;-75
2022/07/25 14:51:20;;;;;;;5.87;1.90;;;;;;;;;;5055417;28;21029;-75
2022/07/25 14:53:46;;;;;;;5.27;2.23;;;;;;;;;;5054627;28;20464;-75